createdAt,value
2022-09-12T00:03:13.074Z,97003.22
2022-09-12T00:08:20.300Z,97003.50
2022-09-12T00:13:23.795Z,97001.09
2022-09-12T00:18:27.779Z,97004.13
2022-09-12T00:23:32.983Z,96998.19
2022-09-12T00:28:38.367Z,97004.25
2022-09-12T00:33:42.012Z,97003.25
2022-09-12T00:38:46.722Z,96995.38
2022-09-12T00:44:15.010Z,97000.84
2022-09-12T00:49:35.575Z,97005.47
2022-09-12T00:54:50.571Z,97004.19
2022-09-12T01:00:03.033Z,97004.78
2022-09-12T01:05:08.638Z,97007.03
2022-09-12T01:10:13.418Z,97004.63
2022-09-12T01:15:19.713Z,97001.72
2022-09-12T01:20:26.166Z,96999.31
2022-09-12T01:26:09.201Z,97012.91
2022-09-12T01:31:24.844Z,97011.31
2022-09-12T01:36:47.799Z,97007.78
2022-09-12T01:42:12.401Z,97006.47
2022-09-12T01:47:28.286Z,97005.66
2022-09-12T01:52:46.132Z,97005.97
2022-09-12T01:58:03.707Z,97007.38
2022-09-12T02:03:16.950Z,97007.16
2022-09-12T02:08:31.734Z,97008.88
2022-09-12T02:13:42.012Z,97022.00
2022-09-12T02:18:53.410Z,97005.19
2022-09-12T02:24:01.803Z,97017.16
2022-09-12T02:29:05.552Z,97016.66
2022-09-12T02:34:10.896Z,97012.66
2022-09-12T02:39:14.235Z,97010.84
2022-09-12T02:44:18.221Z,97004.13
2022-09-12T02:49:22.383Z,96999.28
2022-09-12T02:54:25.910Z,97010.47
2022-09-12T02:59:29.363Z,97005.34
2022-09-12T03:04:41.811Z,97006.41
2022-09-12T03:10:03.234Z,97006.75
2022-09-12T03:15:40.475Z,97010.56
2022-09-12T03:20:49.423Z,97019.34
2022-09-12T03:26:09.821Z,97022.88
2022-09-12T03:31:16.542Z,97016.91
2022-09-12T03:36:30.491Z,97016.44
2022-09-12T03:41:34.288Z,97015.31
2022-09-12T03:46:37.677Z,97014.19
2022-09-12T03:51:41.326Z,97021.25
2022-09-12T03:56:44.847Z,97017.44
2022-09-12T04:01:47.970Z,97010.88
2022-09-12T04:06:50.993Z,97002.41
2022-09-12T04:11:54.285Z,97005.34
2022-09-12T04:16:57.543Z,96999.75
2022-09-12T04:22:00.810Z,97005.41
2022-09-12T04:27:07.682Z,97009.63
2022-09-12T04:32:11.178Z,97012.53
2022-09-12T04:37:14.574Z,97011.28
2022-09-12T04:42:18.133Z,97014.44
2022-09-12T04:47:21.220Z,97019.84
2022-09-12T04:52:24.585Z,97024.38
2022-09-12T04:57:30.099Z,97029.97
2022-09-12T05:02:34.568Z,97016.09
2022-09-12T05:07:38.223Z,97013.31
2022-09-12T05:12:41.727Z,97014.44
2022-09-12T05:17:45.582Z,97022.66
2022-09-12T05:22:48.992Z,97024.63
2022-09-12T05:27:54.981Z,97025.66
2022-09-12T05:32:58.188Z,97023.13
2022-09-12T05:38:01.747Z,97025.53
2022-09-12T05:43:05.409Z,97029.22
2022-09-12T05:48:09.311Z,97028.38
2022-09-12T05:53:12.670Z,97038.34
2022-09-12T05:58:16.600Z,97042.88
2022-09-12T06:03:20.189Z,97041.41
2022-09-12T06:08:25.170Z,97038.84
2022-09-12T06:13:36.561Z,97042.38
2022-09-12T06:18:40.936Z,97049.13
2022-09-12T06:23:45.204Z,97050.41
2022-09-12T06:28:48.718Z,97052.66
2022-09-12T06:33:54.736Z,97049.28
2022-09-12T06:39:04.245Z,97046.84
2022-09-12T06:44:12.663Z,97056.78
2022-09-12T06:49:15.974Z,97060.59
2022-09-12T06:54:19.109Z,97057.69
2022-09-12T06:59:22.387Z,97055.47
2022-09-12T07:04:30.063Z,97063.47
2022-09-12T07:09:33.839Z,97062.78
2022-09-12T07:14:37.258Z,97056.66
2022-09-12T07:19:41.048Z,97060.31
2022-09-12T07:24:44.654Z,97063.69
2022-09-12T07:29:48.061Z,97051.41
2022-09-12T07:34:51.660Z,97057.44
2022-09-12T07:39:55.164Z,97055.59
2022-09-12T07:44:59.334Z,97048.06
2022-09-12T07:50:04.447Z,97056.63
2022-09-12T07:55:09.610Z,97052.88
2022-09-12T08:00:15.253Z,97052.97
2022-09-12T08:05:20.823Z,97042.50
2022-09-12T08:10:25.245Z,97045.75
2022-09-12T08:15:28.705Z,97050.72
2022-09-12T08:20:32.396Z,97047.41
2022-09-12T08:25:35.813Z,97047.03
2022-09-12T08:30:39.325Z,97055.06
2022-09-12T08:35:43.192Z,97046.25
2022-09-12T08:41:04.354Z,97051.66
2022-09-12T08:46:23.092Z,97046.38
2022-09-12T08:51:27.867Z,97032.41
2022-09-12T08:56:36.630Z,97038.00
2022-09-12T09:01:46.070Z,97034.03
2022-09-12T09:07:14.135Z,97034.44
2022-09-12T09:12:35.193Z,97035.38
2022-09-12T09:18:01.866Z,97025.44
2022-09-12T09:23:13.195Z,97022.66
2022-09-12T09:28:23.284Z,97015.47
2022-09-12T09:33:34.058Z,97019.91
2022-09-12T09:39:01.750Z,97013.66
2022-09-12T09:44:05.740Z,97011.03
2022-09-12T09:49:14.228Z,97014.22
2022-09-12T09:54:24.950Z,97008.50
2022-09-12T09:59:30.612Z,97004.25
2022-09-12T10:04:41.434Z,97006.22
2022-09-12T10:10:13.792Z,97010.09
2022-09-12T10:15:18.816Z,97012.47
2022-09-12T10:20:37.804Z,97002.66
2022-09-12T10:25:41.508Z,97005.31
2022-09-12T10:30:53.304Z,96999.69
2022-09-12T10:35:56.943Z,96999.66
2022-09-12T10:41:05.676Z,96997.16
2022-09-12T10:46:15.167Z,96991.09
2022-09-12T10:51:24.542Z,96996.81
2022-09-12T10:56:44.352Z,96992.44
2022-09-12T11:02:16.295Z,96987.53
2022-09-12T11:07:42.406Z,96981.25
2022-09-12T11:13:23.361Z,96977.63
2022-09-12T11:18:45.576Z,96983.66
2022-09-12T11:24:23.050Z,96981.81
2022-09-12T11:29:40.706Z,96970.50
2022-09-12T11:35:18.336Z,96975.75
2022-09-12T11:40:27.940Z,96966.28
2022-09-12T11:45:41.424Z,96966.84
2022-09-12T11:50:44.554Z,96954.38
2022-09-12T11:56:14.803Z,96961.81
2022-09-12T12:01:28.251Z,96958.28
2022-09-12T12:06:37.576Z,96953.59
2022-09-12T12:11:48.985Z,96955.97
2022-09-12T12:16:53.116Z,96958.41
2022-09-12T12:22:24.318Z,96950.16
2022-09-12T12:27:48.215Z,96937.91
2022-09-12T12:32:51.550Z,96949.00
2022-09-12T12:37:56.696Z,96941.81
2022-09-12T12:43:05.346Z,96955.88
2022-09-12T12:48:14.472Z,96949.47
2022-09-12T12:53:25.611Z,96946.63
2022-09-12T12:58:36.776Z,96938.81
2022-09-12T13:04:06.397Z,96936.47
2022-09-12T13:09:31.373Z,96935.69
2022-09-12T13:14:47.167Z,96939.78
2022-09-12T13:20:10.602Z,96946.53
2022-09-12T13:25:19.786Z,96940.22
2022-09-12T13:30:23.144Z,96947.50
2022-09-12T13:35:59.626Z,96945.81
2022-09-12T13:41:18.362Z,96930.59
2022-09-12T13:46:31.842Z,96936.06
2022-09-12T13:51:35.673Z,96931.16
2022-09-12T13:56:47.904Z,96928.16
2022-09-12T14:01:51.375Z,96925.38
2022-09-12T14:06:55.605Z,96926.72
2022-09-12T14:11:59.736Z,96931.00
2022-09-12T14:17:18.979Z,96926.50
2022-09-12T14:22:27.444Z,96924.13
2022-09-12T14:27:42.787Z,96928.06
2022-09-12T14:33:10.244Z,96919.59
2022-09-12T14:38:16.996Z,96913.81
2022-09-12T14:43:35.033Z,96915.94
2022-09-12T14:48:44.901Z,96912.38
2022-09-12T14:53:49.393Z,96906.63
2022-09-12T14:59:30.995Z,96906.81
2022-09-12T15:04:40.969Z,96913.19
2022-09-12T15:09:47.347Z,96918.91
2022-09-12T15:14:52.023Z,96917.69
2022-09-12T15:19:58.483Z,96907.59
2022-09-12T15:25:01.923Z,96912.78
2022-09-12T15:30:07.063Z,96908.31
2022-09-12T15:35:18.601Z,96902.09
2022-09-12T15:40:22.177Z,96905.00
2022-09-12T15:45:28.335Z,96903.13
2022-09-12T15:50:33.000Z,96893.69
2022-09-12T15:55:36.634Z,96901.44
2022-09-12T16:00:39.913Z,96900.78
2022-09-12T16:05:43.319Z,96895.97
2022-09-12T16:10:49.784Z,96892.13
2022-09-12T16:15:57.631Z,96896.31
2022-09-12T16:21:00.983Z,96898.56
2022-09-12T16:26:06.414Z,96899.22
2022-09-12T16:31:13.687Z,96895.56
2022-09-12T16:36:19.584Z,96898.78
2022-09-12T16:41:24.650Z,96910.03
2022-09-12T16:46:28.611Z,96914.41
2022-09-12T16:51:34.460Z,96914.41
2022-09-12T16:56:37.747Z,96928.06
2022-09-12T17:01:41.620Z,96926.78
2022-09-12T17:06:45.669Z,96935.16
2022-09-12T17:11:49.264Z,96942.53
2022-09-12T17:16:52.618Z,96951.53
2022-09-12T17:21:56.929Z,96957.81
2022-09-12T17:27:00.864Z,96957.34
2022-09-12T17:32:06.284Z,96965.06
2022-09-12T17:37:13.916Z,96963.47
2022-09-12T17:42:17.311Z,96974.25
2022-09-12T17:47:20.607Z,96974.72
2022-09-12T17:52:24.667Z,96975.38
2022-09-12T17:57:28.404Z,96979.41
2022-09-12T18:02:33.330Z,96977.00
2022-09-12T18:07:40.896Z,96981.66
2022-09-12T18:12:46.871Z,96983.09
2022-09-12T18:17:50.329Z,96972.50
2022-09-12T18:22:56.551Z,96981.81
2022-09-12T18:28:07.228Z,96986.00
2022-09-12T18:33:13.228Z,96987.78
2022-09-12T18:38:16.566Z,96983.75
2022-09-12T18:43:20.407Z,96980.06
2022-09-12T18:48:23.902Z,96975.88
2022-09-12T18:53:27.244Z,96968.16
2022-09-12T18:58:30.504Z,96965.72
2022-09-12T19:03:33.779Z,96968.31
2022-09-12T19:08:37.685Z,96974.72
2022-09-12T19:13:43.948Z,96967.00
2022-09-12T19:18:49.270Z,96966.06
2022-09-12T19:23:56.981Z,96961.56
2022-09-12T19:29:01.019Z,96955.94
2022-09-12T19:34:06.170Z,96956.28
2022-09-12T19:39:10.043Z,96954.66
2022-09-12T19:44:13.424Z,96955.47
2022-09-12T19:49:17.642Z,96951.59
2022-09-12T19:54:21.822Z,96957.06
2022-09-12T19:59:25.414Z,96959.66
2022-09-12T20:04:29.029Z,96956.94
2022-09-12T20:09:34.008Z,96959.97
2022-09-12T20:14:37.160Z,96966.41
2022-09-12T20:19:40.444Z,96969.94
2022-09-12T20:24:43.813Z,96955.97
2022-09-12T20:29:47.134Z,96957.91
2022-09-12T20:34:51.596Z,96960.97
2022-09-12T20:39:55.114Z,96957.44
2022-09-12T20:44:59.110Z,96953.22
2022-09-12T20:50:06.754Z,96957.09
2022-09-12T20:55:10.570Z,96956.91
2022-09-12T21:00:14.295Z,96964.00
2022-09-12T21:05:18.096Z,96957.56
2022-09-12T21:10:21.739Z,96963.66
2022-09-12T21:15:25.000Z,96958.84
2022-09-12T21:20:28.699Z,96965.25
2022-09-12T21:25:32.614Z,96962.69
2022-09-12T21:30:35.647Z,96959.81
2022-09-12T21:35:38.869Z,96956.91
2022-09-12T21:40:42.258Z,96960.13
2022-09-12T21:45:46.294Z,96947.09
2022-09-12T21:50:53.021Z,96949.84
2022-09-12T21:56:05.172Z,96945.53
2022-09-12T22:01:11.420Z,96929.44
2022-09-12T22:06:19.553Z,96923.66
2022-09-12T22:11:25.420Z,96918.34
2022-09-12T22:16:29.232Z,96917.88
2022-09-12T22:21:32.797Z,96915.63
2022-09-12T22:26:44.388Z,96913.88
2022-09-12T22:31:48.182Z,96908.56
2022-09-12T22:36:51.461Z,96906.16
2022-09-12T22:41:54.845Z,96903.78
2022-09-12T22:46:58.349Z,96895.38
2022-09-12T22:52:01.954Z,96893.63
2022-09-12T22:57:05.543Z,96901.50
2022-09-12T23:02:08.986Z,96898.28
2022-09-12T23:07:13.009Z,96891.84
2022-09-12T23:12:16.420Z,96886.72
2022-09-12T23:17:19.676Z,96888.97
2022-09-12T23:22:23.536Z,96893.66
2022-09-12T23:27:27.748Z,96894.13
2022-09-12T23:32:32.016Z,96883.53
2022-09-12T23:37:35.417Z,96888.81
2022-09-12T23:42:39.067Z,96888.00
2022-09-12T23:47:42.348Z,96888.00
2022-09-12T23:52:45.774Z,96878.38
2022-09-12T23:57:49.641Z,96868.28
